Oak Run, CA (96069)

4:10 PM PDT on September 21, 2014 (GMT -0700)
WHITMORE (CDF) | Change Station
CLOSE
Current Station
Personal Weather Station
Location: Whitmore, CA
Elevation: 2457 ft
Nearby Weather Stations

Elev 2457 ft 40.62 °N, 121.90 °W | Updated 21 minutes ago

Partly Cloudy
Partly Cloudy
84.0 °F
Feels Like 83 °F
N
4.0
Wind Variable Wind from West

Today
High -- | Low -- °F
--% Chance of Precip.
Yesterday
High -- | Low -- °F
Precip. -- in
6:54 AM 7:06 PM
Waning Crescent, 5% visible
Pressure 29.86 in
Visibility 10.0 miles
Clouds Clear
Heat Index 83 °F
Dew Point 54 °F
Humidity 35%
Rainfall -999.00 in
Snow Depth 0 in , 0 in , 0 in
UV 4 out of 12
Pollen 5.80 out of 12
Air Quality Not available.
Flu Activity Not available.
METAR KRDD 212253Z 18010KT 10SM CLR 29/14 A2987 RMK AO2 SLP110 T02940139

More Conditions Fewer Conditions

Pressure 29.86 in
Visibility 10.0 miles
Clouds Clear
Heat Index 83 °F
Dew Point 54 °F
Humidity 35%
Rainfall -999.00 in
Snow Depth 0 in , 0 in , 0 in
UV 4 out of 12
Pollen 5.80 out of 12
Air Quality Not available.
Flu Activity Not available.
METAR KRDD 212253Z 18010KT 10SM CLR 29/14 A2987 RMK AO2 SLP110 T02940139

More Conditions Fewer Conditions

10-Day Weather Forecast

Almanac

Astronomy

Sep. 21, 2014 Rise Set
Actual Time 6:54 AM PDT 7:06 PM PDT
Civil Twilight 6:27 AM PDT 7:34 PM PDT
Nautical Twilight 5:55 AM PDT 8:05 PM PDT
Astronomical Twilight 5:22 AM PDT 8:38 PM PDT
Moon 4:32 AM PDT 5:46 PM PDT
Length of Visible Light 13h 06m
Length of Day
12h 12m
Tomorrow will be 2m 40s shorter.
Waning Crescent, 5% of the Moon is Illuminated
Today
Waning Crescent
Sep 24
New
Oct 1
First Quarter
Oct 8
Full
Oct 15
Last Quarter

Today's Extremes

State Highs State Lows

Community

WunderPhotos

Upload Photos

1,755,292 photos uploaded!

WunderBlogs® & News

Nearby

Snow Depth

Station Depth Elevation
Tahoe City Cross 0 in 6750 ft
Fallen Leaf 0 in 6300 ft
Summit Meadow 0 in 9122 ft
Leavitt Meadows 0 in 7200 ft
Spratt Creek 0 in 6200 ft

Earthquake Activity

City Distance Mag. Time & Date
Cloverdale, California 136 miles 2.5 9:15 PM PDT
2014-09-20
The Geysers, California 139 miles 2.5 11:29 PM PDT
2014-09-17
Minimum magnitude displayed is 2.5.

Coastal Water Temperatures

Place Temperature
No Stations Reporting

Nearby Weather Stations